Time;durP1;ratioP1;P1;durP2;ratioP2;P2;SDS_P1;SDS_P2;PMS_P1;PMS_P2;Temp;Humidity;BMP_temperature;BMP_pressure;BME280_temperature;BME280_humidity;BME280_pressure;Samples;Min_cycle;Max_cycle;Signal;HPM_P1;HPM_P2
2022/05/12 00:00:52;;;;;;;5.38;1.70;;;;;;;;;;5014565;28;20091;-91
2022/05/12 00:03:18;;;;;;;4.50;2.00;;;;;;;;;;5017822;28;20041;-87
2022/05/12 00:05:44;;;;;;;4.78;1.98;;;;;;;;;;5018496;28;20560;-92
2022/05/12 00:08:11;;;;;;;6.18;1.70;;;;;;;;;;5016811;28;20041;-88
2022/05/12 00:10:38;;;;;;;4.45;2.03;;;;;;;;;;5017345;28;20046;-91
2022/05/12 00:13:04;;;;;;;5.45;2.15;;;;;;;;;;5017485;28;20109;-88
2022/05/12 00:15:33;;;;;;;2.90;1.98;;;;;;;;;;5017645;28;20547;-91
2022/05/12 00:18:02;;;;;;;3.97;1.85;;;;;;;;;;5029336;28;20065;-89
2022/05/12 00:20:28;;;;;;;4.38;1.98;;;;;;;;;;5023282;28;20053;-89
2022/05/12 00:23:12;;;;;;;5.53;2.20;;;;;;;;;;5023407;28;20054;-86
2022/05/12 00:25:38;;;;;;;5.43;2.00;;;;;;;;;;5010093;28;20057;-87
2022/05/12 00:28:05;;;;;;;4.95;2.13;;;;;;;;;;5032225;28;20052;-89
2022/05/12 00:30:31;;;;;;;8.75;2.20;;;;;;;;;;5011699;28;20050;-86
2022/05/12 00:32:57;;;;;;;8.32;2.20;;;;;;;;;;5026068;28;20041;-88
2022/05/12 00:35:23;;;;;;;8.48;2.33;;;;;;;;;;5014939;28;20053;-91
2022/05/12 00:37:49;;;;;;;8.60;2.30;;;;;;;;;;5007270;28;20046;-87
2022/05/12 00:40:16;;;;;;;6.97;2.17;;;;;;;;;;5009840;28;20034;-89
2022/05/12 00:42:59;;;;;;;6.25;2.28;;;;;;;;;;5019860;28;20392;-87
2022/05/12 00:45:26;;;;;;;9.03;2.37;;;;;;;;;;5021159;28;20111;-90
2022/05/12 00:47:52;;;;;;;5.95;2.30;;;;;;;;;;5034938;28;20053;-89
2022/05/12 00:50:19;;;;;;;4.93;2.67;;;;;;;;;;5025249;28;20532;-88
2022/05/12 00:52:45;;;;;;;5.82;2.42;;;;;;;;;;5020332;28;20047;-89
2022/05/12 00:55:17;;;;;;;5.22;2.45;;;;;;;;;;5014300;28;20054;-88
2022/05/12 00:57:49;;;;;;;6.70;2.60;;;;;;;;;;5028589;28;20496;-87
2022/05/12 01:00:15;;;;;;;8.60;2.30;;;;;;;;;;5018075;28;20051;-88
2022/05/12 01:02:43;;;;;;;6.00;2.63;;;;;;;;;;5013707;28;20039;-89
2022/05/12 01:05:09;;;;;;;4.97;2.20;;;;;;;;;;5021023;28;20065;-88
2022/05/12 01:07:41;;;;;;;6.18;2.60;;;;;;;;;;5018159;28;20061;-88
2022/05/12 01:10:10;;;;;;;6.93;2.30;;;;;;;;;;5006360;28;20041;-88
2022/05/12 01:12:49;;;;;;;4.75;2.40;;;;;;;;;;5025083;28;20052;-88
2022/05/12 01:15:17;;;;;;;5.47;2.83;;;;;;;;;;5016324;28;20052;-87
2022/05/12 01:17:43;;;;;;;6.15;2.60;;;;;;;;;;5011828;28;20053;-87
2022/05/12 01:20:10;;;;;;;7.22;2.55;;;;;;;;;;5020089;28;20033;-89
2022/05/12 01:22:57;;;;;;;6.15;2.20;;;;;;;;;;5024525;28;20081;-86
2022/05/12 01:25:26;;;;;;;5.72;2.70;;;;;;;;;;5015778;28;20045;-87
2022/05/12 01:27:52;;;;;;;9.40;2.80;;;;;;;;;;5017769;28;20042;-88
2022/05/12 01:30:20;;;;;;;7.50;2.78;;;;;;;;;;5016929;28;20448;-87
2022/05/12 01:32:47;;;;;;;7.03;2.70;;;;;;;;;;5018015;28;20038;-88
2022/05/12 01:35:13;;;;;;;6.95;2.67;;;;;;;;;;5015134;28;20052;-89
2022/05/12 01:37:40;;;;;;;11.90;3.17;;;;;;;;;;5012744;28;20077;-88
2022/05/12 01:40:07;;;;;;;9.65;3.65;;;;;;;;;;5026955;28;20042;-91
2022/05/12 01:42:36;;;;;;;7.50;2.78;;;;;;;;;;5021409;28;20073;-87
2022/05/12 01:45:03;;;;;;;8.55;3.28;;;;;;;;;;5026583;28;20116;-89
2022/05/12 01:47:29;;;;;;;8.43;3.50;;;;;;;;;;5013706;28;20045;-89
2022/05/12 01:49:55;;;;;;;6.28;3.17;;;;;;;;;;5027364;28;20046;-87
2022/05/12 01:52:21;;;;;;;9.20;3.30;;;;;;;;;;5021475;28;20049;-86
2022/05/12 01:54:47;;;;;;;9.05;3.38;;;;;;;;;;5016527;28;20133;-89
2022/05/12 01:57:13;;;;;;;7.00;2.85;;;;;;;;;;5003039;28;20129;-90
2022/05/12 01:59:39;;;;;;;7.07;2.95;;;;;;;;;;5019053;28;20480;-87
2022/05/12 02:02:05;;;;;;;7.80;3.00;;;;;;;;;;5013570;28;20050;-89
2022/05/12 02:04:31;;;;;;;7.20;3.30;;;;;;;;;;5024680;28;20041;-90
2022/05/12 02:06:57;;;;;;;5.32;2.63;;;;;;;;;;5013561;28;20067;-87
2022/05/12 02:09:23;;;;;;;7.53;3.10;;;;;;;;;;5021051;28;20135;-88
2022/05/12 02:11:50;;;;;;;9.10;2.95;;;;;;;;;;5007046;28;20041;-89
2022/05/12 02:14:15;;;;;;;4.68;3.10;;;;;;;;;;5012909;28;20041;-87
2022/05/12 02:16:42;;;;;;;7.10;3.53;;;;;;;;;;5027677;28;20103;-89
2022/05/12 02:19:08;;;;;;;8.40;3.42;;;;;;;;;;5019282;28;20520;-88
2022/05/12 02:21:34;;;;;;;7.40;3.20;;;;;;;;;;5004037;28;20054;-88
2022/05/12 02:24:01;;;;;;;9.93;3.40;;;;;;;;;;5028227;28;20492;-88
2022/05/12 02:26:27;;;;;;;4.57;2.67;;;;;;;;;;5029966;28;20416;-89
2022/05/12 02:28:53;;;;;;;9.63;3.47;;;;;;;;;;5017042;28;20054;-89
2022/05/12 02:31:19;;;;;;;9.48;3.50;;;;;;;;;;5005465;28;20076;-88
2022/05/12 02:33:45;;;;;;;10.10;3.63;;;;;;;;;;5014750;28;20389;-87
2022/05/12 02:36:11;;;;;;;7.35;3.70;;;;;;;;;;5016715;28;20050;-88
2022/05/12 02:38:37;;;;;;;6.05;3.40;;;;;;;;;;5021108;28;20116;-88
2022/05/12 02:41:03;;;;;;;8.55;3.67;;;;;;;;;;5016100;28;20490;-89
2022/05/12 02:43:31;;;;;;;11.48;3.90;;;;;;;;;;5022313;28;20037;-88
2022/05/12 02:46:08;;;;;;;9.93;4.03;;;;;;;;;;5006126;28;20070;-93
2022/05/12 02:48:35;;;;;;;8.85;3.75;;;;;;;;;;5017283;28;20053;-92
2022/05/12 02:51:01;;;;;;;7.18;3.60;;;;;;;;;;5013146;28;20104;-89
2022/05/12 02:53:28;;;;;;;8.63;3.92;;;;;;;;;;5012558;28;20049;-88
2022/05/12 02:55:54;;;;;;;6.80;3.67;;;;;;;;;;5023590;28;20094;-91
2022/05/12 02:58:20;;;;;;;7.47;3.47;;;;;;;;;;5024557;28;20048;-89
2022/05/12 03:00:47;;;;;;;7.20;3.55;;;;;;;;;;5013628;28;20057;-90
2022/05/12 03:03:13;;;;;;;7.38;3.50;;;;;;;;;;5002234;28;20068;-90
2022/05/12 03:05:39;;;;;;;8.77;3.50;;;;;;;;;;5007332;28;20093;-87
2022/05/12 03:08:06;;;;;;;8.23;3.50;;;;;;;;;;5005516;28;20048;-89
2022/05/12 03:10:32;;;;;;;7.45;3.28;;;;;;;;;;5016307;28;20038;-90
2022/05/12 03:12:58;;;;;;;8.05;3.70;;;;;;;;;;5025251;28;20049;-88
2022/05/12 03:15:25;;;;;;;11.10;3.80;;;;;;;;;;5012900;28;20042;-90
2022/05/12 03:17:51;;;;;;;5.65;3.13;;;;;;;;;;5012927;28;20046;-89
2022/05/12 03:20:19;;;;;;;11.93;3.70;;;;;;;;;;5009502;28;20038;-88
2022/05/12 03:22:45;;;;;;;9.93;3.45;;;;;;;;;;5014738;28;20057;-88
2022/05/12 03:25:12;;;;;;;7.40;3.45;;;;;;;;;;5024169;28;20037;-90
2022/05/12 03:27:40;;;;;;;6.35;3.35;;;;;;;;;;5023993;28;20125;-89
2022/05/12 03:30:07;;;;;;;10.38;3.63;;;;;;;;;;5020391;28;20177;-90
2022/05/12 03:32:33;;;;;;;10.00;3.42;;;;;;;;;;5010209;28;20065;-88
2022/05/12 03:34:59;;;;;;;7.05;3.53;;;;;;;;;;5017078;28;20110;-88
2022/05/12 03:37:25;;;;;;;7.40;3.65;;;;;;;;;;5021392;28;20050;-89
2022/05/12 03:39:51;;;;;;;8.82;3.45;;;;;;;;;;5027955;28;20046;-88
2022/05/12 03:42:18;;;;;;;7.45;3.55;;;;;;;;;;5015521;28;20128;-87
2022/05/12 03:44:49;;;;;;;10.40;3.97;;;;;;;;;;5013912;28;20095;-88
2022/05/12 03:47:19;;;;;;;7.03;3.60;;;;;;;;;;5019948;28;20096;-89
2022/05/12 03:49:49;;;;;;;10.88;3.30;;;;;;;;;;5021281;28;20033;-87
2022/05/12 03:52:15;;;;;;;7.28;3.00;;;;;;;;;;5015432;28;20497;-87
2022/05/12 03:54:44;;;;;;;4.80;2.97;;;;;;;;;;5029901;28;20072;-91
2022/05/12 03:57:11;;;;;;;7.38;3.03;;;;;;;;;;5017146;28;20407;-89
2022/05/12 03:59:38;;;;;;;8.57;3.45;;;;;;;;;;5019041;28;20050;-90
2022/05/12 04:02:04;;;;;;;8.77;3.30;;;;;;;;;;5008874;28;20049;-89
2022/05/12 04:04:33;;;;;;;12.07;3.83;;;;;;;;;;5022893;28;20069;-89
2022/05/12 04:07:00;;;;;;;6.43;3.22;;;;;;;;;;5015821;28;20092;-88
2022/05/12 04:09:29;;;;;;;9.77;3.20;;;;;;;;;;5017861;28;20069;-90
2022/05/12 04:11:55;;;;;;;10.73;3.55;;;;;;;;;;5008773;28;20080;-89
2022/05/12 04:14:22;;;;;;;9.45;3.17;;;;;;;;;;5036118;28;20045;-89
2022/05/12 04:16:48;;;;;;;7.65;3.38;;;;;;;;;;5017440;28;20163;-92
2022/05/12 04:19:14;;;;;;;8.05;3.38;;;;;;;;;;5025721;28;20050;-90
2022/05/12 04:21:43;;;;;;;9.07;3.70;;;;;;;;;;5007881;28;20029;-89
2022/05/12 04:24:09;;;;;;;10.20;3.17;;;;;;;;;;5030859;28;20049;-87
2022/05/12 04:26:37;;;;;;;6.40;3.20;;;;;;;;;;5016855;28;20057;-88
2022/05/12 04:29:04;;;;;;;6.32;3.22;;;;;;;;;;5023730;28;20125;-91
2022/05/12 04:31:30;;;;;;;9.02;3.03;;;;;;;;;;5013040;28;20053;-87
2022/05/12 04:36:41;;;;;;;9.10;2.80;;;;;;;;;;4997144;28;20141;-91
2022/05/12 04:39:08;;;;;;;8.93;3.10;;;;;;;;;;5016837;28;20485;-88
2022/05/12 04:41:34;;;;;;;11.68;3.35;;;;;;;;;;5026054;28;20071;-88
2022/05/12 04:44:00;;;;;;;11.18;3.13;;;;;;;;;;5039463;28;20101;-90
2022/05/12 04:46:29;;;;;;;9.70;3.33;;;;;;;;;;5014112;28;20049;-89
2022/05/12 04:48:55;;;;;;;8.13;3.10;;;;;;;;;;5027687;28;20045;-88
2022/05/12 04:51:22;;;;;;;11.38;3.55;;;;;;;;;;5028544;28;20054;-91
2022/05/12 04:53:48;;;;;;;14.57;3.42;;;;;;;;;;5029771;28;20116;-88
2022/05/12 04:56:14;;;;;;;11.48;3.28;;;;;;;;;;5023751;28;20062;-88
2022/05/12 04:58:40;;;;;;;9.05;3.40;;;;;;;;;;5018004;28;20045;-88
2022/05/12 05:01:06;;;;;;;10.07;3.17;;;;;;;;;;5016442;28;20078;-88
2022/05/12 05:03:33;;;;;;;8.70;3.30;;;;;;;;;;5032606;28;20042;-88
2022/05/12 05:05:59;;;;;;;9.32;3.20;;;;;;;;;;5020243;28;20115;-89
2022/05/12 05:08:26;;;;;;;8.57;3.20;;;;;;;;;;5021997;28;20045;-89
2022/05/12 05:10:55;;;;;;;13.65;3.03;;;;;;;;;;5024218;28;20116;-89
2022/05/12 05:13:22;;;;;;;13.13;6.03;;;;;;;;;;5017025;28;20132;-88
2022/05/12 05:15:49;;;;;;;12.10;3.10;;;;;;;;;;5009676;28;20485;-86
2022/05/12 05:18:16;;;;;;;11.05;3.38;;;;;;;;;;5023402;28;20049;-87
2022/05/12 05:20:43;;;;;;;9.85;2.95;;;;;;;;;;5014087;28;20452;-86
2022/05/12 05:23:10;;;;;;;10.60;3.95;;;;;;;;;;5029029;28;20517;-86
2022/05/12 05:25:36;;;;;;;9.20;2.80;;;;;;;;;;5007430;28;20057;-87
2022/05/12 05:28:02;;;;;;;9.68;3.00;;;;;;;;;;5002759;28;20043;-89
2022/05/12 05:30:28;;;;;;;8.20;2.70;;;;;;;;;;5008997;28;20077;-88
2022/05/12 05:32:55;;;;;;;7.30;2.70;;;;;;;;;;5014205;28;20052;-87
2022/05/12 05:35:21;;;;;;;9.80;2.78;;;;;;;;;;5019702;28;20049;-88
2022/05/12 05:37:48;;;;;;;9.57;2.97;;;;;;;;;;5021899;28;20054;-89
2022/05/12 05:40:15;;;;;;;15.63;3.67;;;;;;;;;;5043122;28;20058;-87
2022/05/12 05:42:42;;;;;;;11.20;3.35;;;;;;;;;;5028931;28;20124;-88
2022/05/12 05:45:12;;;;;;;10.43;2.95;;;;;;;;;;5001616;28;20553;-87
2022/05/12 05:47:44;;;;;;;9.55;3.28;;;;;;;;;;5017835;28;20041;-90
2022/05/12 05:50:10;;;;;;;10.75;2.95;;;;;;;;;;5017116;28;20076;-89
2022/05/12 05:55:21;;;;;;;7.93;3.10;;;;;;;;;;5014587;28;20046;-90
2022/05/12 05:57:48;;;;;;;11.48;3.17;;;;;;;;;;5014375;28;20135;-89
2022/05/12 06:00:15;;;;;;;8.93;3.10;;;;;;;;;;5013345;28;20478;-92
2022/05/12 06:02:42;;;;;;;9.05;3.28;;;;;;;;;;4998782;28;20057;-89
2022/05/12 06:05:08;;;;;;;8.55;3.05;;;;;;;;;;4998727;28;20034;-88
2022/05/12 06:07:38;;;;;;;8.77;3.25;;;;;;;;;;5008771;28;20061;-88
2022/05/12 06:10:06;;;;;;;7.80;2.85;;;;;;;;;;5011316;28;20102;-89
2022/05/12 06:12:33;;;;;;;12.30;3.20;;;;;;;;;;5040209;28;20506;-89
2022/05/12 06:14:59;;;;;;;7.25;2.80;;;;;;;;;;5013193;28;20037;-87
2022/05/12 06:17:26;;;;;;;11.23;3.15;;;;;;;;;;5013689;28;20081;-92
2022/05/12 06:19:52;;;;;;;10.45;3.13;;;;;;;;;;5017473;28;20041;-91
2022/05/12 06:22:19;;;;;;;9.10;2.88;;;;;;;;;;5008384;28;20061;-88
2022/05/12 06:24:47;;;;;;;9.98;3.10;;;;;;;;;;5016446;28;20076;-89
2022/05/12 06:27:13;;;;;;;10.85;3.15;;;;;;;;;;5026974;28;20057;-90
2022/05/12 06:29:41;;;;;;;12.25;3.38;;;;;;;;;;5015892;28;20512;-90
2022/05/12 06:32:07;;;;;;;9.85;3.00;;;;;;;;;;5012530;28;20448;-87
2022/05/12 06:34:34;;;;;;;9.48;2.95;;;;;;;;;;5015396;28;20041;-89
2022/05/12 06:37:00;;;;;;;6.03;2.75;;;;;;;;;;5013733;28;20038;-88
2022/05/12 06:39:26;;;;;;;8.30;2.92;;;;;;;;;;5007388;28;20054;-87
2022/05/12 06:41:53;;;;;;;8.02;2.92;;;;;;;;;;5014919;28;20053;-87
2022/05/12 06:44:19;;;;;;;7.50;2.60;;;;;;;;;;5014014;28;20401;-88
2022/05/12 06:46:45;;;;;;;7.75;3.28;;;;;;;;;;5011083;28;20041;-88
2022/05/12 06:49:11;;;;;;;10.63;2.60;;;;;;;;;;5016616;28;20515;-88
2022/05/12 06:51:37;;;;;;;7.75;2.78;;;;;;;;;;5033586;28;20091;-88
2022/05/12 06:54:03;;;;;;;11.38;2.88;;;;;;;;;;5025189;28;20071;-89
2022/05/12 06:56:30;;;;;;;8.55;2.80;;;;;;;;;;5014189;28;20052;-89
2022/05/12 06:58:56;;;;;;;9.65;2.80;;;;;;;;;;5023892;28;20141;-87
2022/05/12 07:01:23;;;;;;;7.75;2.90;;;;;;;;;;5034192;28;20131;-87
2022/05/12 07:03:49;;;;;;;11.85;3.35;;;;;;;;;;5035468;28;20115;-89
2022/05/12 07:06:16;;;;;;;7.82;2.90;;;;;;;;;;5025122;28;20505;-89
2022/05/12 07:08:42;;;;;;;9.63;2.80;;;;;;;;;;5018840;28;20088;-87
2022/05/12 07:11:09;;;;;;;8.85;2.90;;;;;;;;;;5005693;28;20394;-88
2022/05/12 07:13:36;;;;;;;9.77;3.65;;;;;;;;;;5018627;28;20209;-86
2022/05/12 07:16:03;;;;;;;9.02;3.10;;;;;;;;;;5017714;28;20072;-89
2022/05/12 07:18:29;;;;;;;10.00;2.80;;;;;;;;;;4997963;28;20445;-88
2022/05/12 07:26:35;;;;;;;9.63;2.83;;;;;;;;;;5015676;28;20130;-88
2022/05/12 07:29:01;;;;;;;11.18;3.03;;;;;;;;;;4995432;28;20047;-88
2022/05/12 07:31:27;;;;;;;10.05;2.70;;;;;;;;;;4996602;28;20104;-87
2022/05/12 07:33:54;;;;;;;6.93;3.25;;;;;;;;;;4998182;28;20443;-88
2022/05/12 07:36:23;;;;;;;8.23;3.38;;;;;;;;;;4998207;28;20047;-90
2022/05/12 07:38:49;;;;;;;9.20;3.58;;;;;;;;;;5005697;28;20061;-88
2022/05/12 07:41:16;;;;;;;10.73;3.67;;;;;;;;;;4998019;28;20039;-89
2022/05/12 07:43:43;;;;;;;10.35;3.20;;;;;;;;;;4998761;28;20085;-87
2022/05/12 07:46:09;;;;;;;8.43;2.97;;;;;;;;;;5031105;28;20536;-88
2022/05/12 07:48:36;;;;;;;8.77;3.10;;;;;;;;;;5009957;28;20133;-88
2022/05/12 07:51:02;;;;;;;9.23;3.40;;;;;;;;;;4999422;28;20054;-88
2022/05/12 07:53:28;;;;;;;14.23;3.58;;;;;;;;;;5019318;28;20084;-87
2022/05/12 07:55:57;;;;;;;7.95;3.17;;;;;;;;;;5039499;28;20049;-88
2022/05/12 07:58:23;;;;;;;9.50;3.30;;;;;;;;;;5021593;28;20120;-87
2022/05/12 08:00:49;;;;;;;8.13;3.65;;;;;;;;;;5018195;28;20400;-88
2022/05/12 08:03:15;;;;;;;8.25;3.03;;;;;;;;;;5017883;28;20057;-88
2022/05/12 08:05:41;;;;;;;9.23;2.97;;;;;;;;;;5009440;28;20033;-87
2022/05/12 08:08:09;;;;;;;9.93;3.20;;;;;;;;;;5020992;28;20045;-87
2022/05/12 08:10:36;;;;;;;7.32;3.33;;;;;;;;;;5031837;28;20053;-87
2022/05/12 08:13:02;;;;;;;5.63;2.90;;;;;;;;;;5029724;28;20565;-87
2022/05/12 08:15:28;;;;;;;6.78;2.95;;;;;;;;;;5024108;28;20050;-89
2022/05/12 08:17:56;;;;;;;9.55;2.97;;;;;;;;;;4996348;28;20053;-87
2022/05/12 08:20:23;;;;;;;8.90;2.88;;;;;;;;;;4995441;28;20043;-88
2022/05/12 08:22:49;;;;;;;6.88;2.95;;;;;;;;;;5012605;28;20058;-86
2022/05/12 08:25:16;;;;;;;6.72;2.70;;;;;;;;;;5035821;28;20045;-87
2022/05/12 08:27:42;;;;;;;6.30;2.70;;;;;;;;;;5031730;28;20149;-90
2022/05/12 08:30:10;;;;;;;6.53;2.67;;;;;;;;;;5021166;28;20038;-87
2022/05/12 08:32:36;;;;;;;4.55;2.80;;;;;;;;;;4998736;28;20053;-88
2022/05/12 08:35:03;;;;;;;5.90;2.63;;;;;;;;;;5011485;28;20489;-87
2022/05/12 08:37:29;;;;;;;5.57;2.60;;;;;;;;;;5027132;28;20136;-86
2022/05/12 08:39:56;;;;;;;7.40;2.60;;;;;;;;;;5038264;28;20045;-86
2022/05/12 08:42:27;;;;;;;7.32;2.65;;;;;;;;;;5016375;28;20053;-89
2022/05/12 08:44:54;;;;;;;6.93;2.42;;;;;;;;;;5005679;28;20054;-86
2022/05/12 08:47:27;;;;;;;6.45;2.40;;;;;;;;;;5008385;28;20093;-88
2022/05/12 08:49:53;;;;;;;7.50;2.70;;;;;;;;;;5009192;28;20413;-88
2022/05/12 08:52:27;;;;;;;8.95;2.63;;;;;;;;;;5017434;28;20050;-87
2022/05/12 08:55:00;;;;;;;6.43;2.42;;;;;;;;;;5033867;28;20049;-86
2022/05/12 08:57:31;;;;;;;9.18;3.15;;;;;;;;;;5032058;28;20072;-88
2022/05/12 08:59:59;;;;;;;5.72;2.40;;;;;;;;;;4996164;28;20073;-88
2022/05/12 09:02:33;;;;;;;6.43;2.58;;;;;;;;;;4996560;28;20046;-87
2022/05/12 09:05:13;;;;;;;5.45;2.20;;;;;;;;;;4995768;28;20066;-87
2022/05/12 09:07:55;;;;;;;7.25;2.67;;;;;;;;;;5015852;28;20122;-86
2022/05/12 09:10:33;;;;;;;5.82;2.50;;;;;;;;;;5015011;28;20473;-87
2022/05/12 09:13:02;;;;;;;3.72;2.30;;;;;;;;;;5016899;28;20084;-88
2022/05/12 09:15:31;;;;;;;9.55;2.45;;;;;;;;;;5010618;28;20145;-88
2022/05/12 09:18:01;;;;;;;4.07;1.98;;;;;;;;;;4996200;28;20069;-87
2022/05/12 09:20:29;;;;;;;4.55;1.95;;;;;;;;;;4996515;28;20434;-88
2022/05/12 09:22:55;;;;;;;5.50;2.15;;;;;;;;;;5018821;28;20489;-88
2022/05/12 09:25:36;;;;;;;5.28;2.20;;;;;;;;;;5016019;28;20050;-86
2022/05/12 09:28:21;;;;;;;3.78;2.38;;;;;;;;;;4996010;28;20087;-88
2022/05/12 09:30:50;;;;;;;5.05;2.20;;;;;;;;;;4996291;28;20081;-88
2022/05/12 09:33:29;;;;;;;4.68;2.33;;;;;;;;;;4997657;28;20049;-88
2022/05/12 09:35:57;;;;;;;4.72;2.50;;;;;;;;;;5013503;28;20404;-86
2022/05/12 09:38:26;;;;;;;4.05;2.40;;;;;;;;;;5011513;28;20061;-87
2022/05/12 09:40:52;;;;;;;6.35;2.60;;;;;;;;;;5033834;28;20037;-86
2022/05/12 09:43:38;;;;;;;4.88;2.30;;;;;;;;;;5001058;28;20366;-86
2022/05/12 09:46:16;;;;;;;9.13;2.63;;;;;;;;;;5011661;28;20046;-87
2022/05/12 09:48:43;;;;;;;8.50;2.80;;;;;;;;;;5005138;28;20042;-87
2022/05/12 09:51:21;;;;;;;8.88;2.20;;;;;;;;;;5016125;28;20037;-85
2022/05/12 09:53:50;;;;;;;3.85;2.28;;;;;;;;;;5022165;28;20057;-87
2022/05/12 09:56:33;;;;;;;7.55;2.78;;;;;;;;;;5016119;28;20061;-87
2022/05/12 09:59:07;;;;;;;8.80;3.03;;;;;;;;;;5002725;28;20046;-87
2022/05/12 10:01:33;;;;;;;;;;;;;;;;;;5002402;28;20092;-87
2022/05/12 10:09:52;;;;;;;6.78;2.80;;;;;;;;;;4994684;28;20135;-88
2022/05/12 10:12:23;;;;;;;5.10;2.30;;;;;;;;;;5027160;28;20049;-88
2022/05/12 10:14:55;;;;;;;7.70;2.60;;;;;;;;;;5032974;28;20064;-88
2022/05/12 10:17:39;;;;;;;6.45;2.70;;;;;;;;;;5035927;28;20050;-87
2022/05/12 10:20:11;;;;;;;5.05;2.60;;;;;;;;;;5029234;28;20041;-88
2022/05/12 10:22:43;;;;;;;5.32;2.20;;;;;;;;;;5025646;28;20465;-88
2022/05/12 10:25:27;;;;;;;6.90;2.42;;;;;;;;;;5035412;28;20104;-87
2022/05/12 10:28:13;;;;;;;5.25;2.25;;;;;;;;;;5034868;28;20050;-89
2022/05/12 10:30:54;;;;;;;4.78;2.60;;;;;;;;;;4998953;28;20176;-89
2022/05/12 10:33:42;;;;;;;5.45;2.20;;;;;;;;;;4999698;28;20042;-80
2022/05/12 10:36:27;;;;;;;2.92;1.90;;;;;;;;;;5017343;28;20038;-86
2022/05/12 10:39:02;;;;;;;2.17;1.83;;;;;;;;;;5012730;28;20452;-88
2022/05/12 10:41:29;;;;;;;3.10;1.90;;;;;;;;;;5010797;28;20053;-86
2022/05/12 10:43:55;;;;;;;4.35;2.00;;;;;;;;;;5014511;28;20064;-88
2022/05/12 10:46:30;;;;;;;5.45;2.20;;;;;;;;;;5013370;28;20474;-89
2022/05/12 10:48:57;;;;;;;4.32;2.20;;;;;;;;;;5008155;28;20161;-86
2022/05/12 10:51:27;;;;;;;5.72;2.20;;;;;;;;;;5007914;28;20038;-87
2022/05/12 10:53:57;;;;;;;3.97;2.20;;;;;;;;;;5019613;28;20065;-86
2022/05/12 10:56:35;;;;;;;4.63;2.25;;;;;;;;;;5012944;28;20053;-87
2022/05/12 10:59:12;;;;;;;5.50;2.20;;;;;;;;;;5011463;28;20049;-87
2022/05/12 11:01:40;;;;;;;4.88;2.10;;;;;;;;;;5013056;28;20049;-87
2022/05/12 11:04:06;;;;;;;3.85;1.95;;;;;;;;;;5007072;28;20046;-87
2022/05/12 11:06:36;;;;;;;4.10;2.08;;;;;;;;;;5006661;28;20397;-86
2022/05/12 11:09:17;;;;;;;3.75;2.10;;;;;;;;;;5013798;28;20062;-88
2022/05/12 11:11:45;;;;;;;3.63;2.10;;;;;;;;;;4994893;28;20108;-86
2022/05/12 11:14:33;;;;;;;5.90;1.95;;;;;;;;;;4993629;28;20089;-88
2022/05/12 11:17:17;;;;;;;4.15;1.95;;;;;;;;;;4993833;28;20054;-88
2022/05/12 11:19:46;;;;;;;3.88;2.00;;;;;;;;;;5010928;28;20046;-85
2022/05/12 11:22:31;;;;;;;9.55;2.60;;;;;;;;;;5011876;28;20057;-87
2022/05/12 11:25:23;;;;;;;5.78;2.10;;;;;;;;;;5001913;28;20050;-85
2022/05/12 11:27:53;;;;;;;3.97;1.85;;;;;;;;;;4993669;28;20196;-87
2022/05/12 11:30:25;;;;;;;4.22;1.80;;;;;;;;;;4998752;28;20477;-86
2022/05/12 11:32:51;;;;;;;3.63;2.10;;;;;;;;;;5014096;28;20038;-86
2022/05/12 11:35:22;;;;;;;3.33;1.90;;;;;;;;;;5009562;28;20141;-87
2022/05/12 11:37:50;;;;;;;4.53;2.00;;;;;;;;;;5009425;28;20042;-85
2022/05/12 11:40:35;;;;;;;3.47;1.90;;;;;;;;;;5011245;28;20132;-85
2022/05/12 11:46:12;;;;;;;3.92;2.10;;;;;;;;;;5000067;28;20161;-87
2022/05/12 11:48:46;;;;;;;6.10;2.03;;;;;;;;;;5006955;28;20049;-87
2022/05/12 11:51:24;;;;;;;6.65;2.30;;;;;;;;;;5031193;28;20485;-86
2022/05/12 11:53:55;;;;;;;5.10;2.00;;;;;;;;;;5029729;28;20045;-87
2022/05/12 11:56:40;;;;;;;3.33;1.60;;;;;;;;;;5023054;28;20038;-86
2022/05/12 11:59:24;;;;;;;4.90;1.80;;;;;;;;;;5031126;28;20385;-86
2022/05/12 12:01:52;;;;;;;3.35;1.70;;;;;;;;;;5031345;28;20049;-86
2022/05/12 12:04:38;;;;;;;4.35;2.13;;;;;;;;;;5015951;28;20042;-86
2022/05/12 12:07:08;;;;;;;5.38;1.80;;;;;;;;;;5021345;28;20042;-86
2022/05/12 12:09:37;;;;;;;4.55;1.88;;;;;;;;;;5018073;28;20046;-88
2022/05/12 12:12:05;;;;;;;3.95;1.63;;;;;;;;;;5029852;28;20041;-86
2022/05/12 12:14:43;;;;;;;5.05;1.70;;;;;;;;;;5007147;28;20052;-87
2022/05/12 12:17:28;;;;;;;3.95;1.75;;;;;;;;;;5029677;28;20054;-87
2022/05/12 12:19:56;;;;;;;3.45;1.90;;;;;;;;;;5018341;28;20038;-87
2022/05/12 12:22:31;;;;;;;5.18;2.03;;;;;;;;;;5024456;28;20061;-89
2022/05/12 12:25:15;;;;;;;4.63;1.60;;;;;;;;;;5016294;28;20462;-86
2022/05/12 12:27:44;;;;;;;2.38;1.63;;;;;;;;;;5000925;28;20046;-87
2022/05/12 12:30:29;;;;;;;3.72;1.70;;;;;;;;;;5031507;28;20369;-84
2022/05/12 12:33:10;;;;;;;3.58;2.42;;;;;;;;;;5031353;28;20392;-86
2022/05/12 12:36:09;;;;;;;6.63;2.22;;;;;;;;;;5039287;28;20042;-86
2022/05/12 12:38:47;;;;;;;5.35;1.92;;;;;;;;;;5031971;28;20048;-87
2022/05/12 12:41:29;;;;;;;3.63;1.88;;;;;;;;;;5015352;28;20485;-85
2022/05/12 12:43:57;;;;;;;3.83;1.90;;;;;;;;;;5034707;28;20042;-84
2022/05/12 12:46:28;;;;;;;5.55;2.10;;;;;;;;;;5015055;28;20050;-87
2022/05/12 12:48:57;;;;;;;4.03;1.90;;;;;;;;;;5021113;28;20393;-85
2022/05/12 12:51:27;;;;;;;6.35;1.98;;;;;;;;;;5017242;28;20397;-85
2022/05/12 12:56:42;;;;;;;6.22;2.40;;;;;;;;;;5013252;28;20058;-86
2022/05/12 12:59:16;;;;;;;4.38;2.03;;;;;;;;;;5023864;28;20045;-87
2022/05/12 13:01:45;;;;;;;5.25;2.10;;;;;;;;;;5012577;28;20069;-87
2022/05/12 13:04:12;;;;;;;6.53;2.10;;;;;;;;;;5015344;28;20103;-86
2022/05/12 13:06:39;;;;;;;4.43;2.25;;;;;;;;;;5008815;28;20038;-85
2022/05/12 13:09:07;;;;;;;6.13;2.05;;;;;;;;;;5011013;28;20050;-87
2022/05/12 13:11:36;;;;;;;5.47;2.50;;;;;;;;;;5013335;28;20054;-85
2022/05/12 13:14:02;;;;;;;5.82;2.55;;;;;;;;;;5007811;28;20049;-85
2022/05/12 13:16:30;;;;;;;4.78;2.20;;;;;;;;;;5010008;28;20145;-88
2022/05/12 13:18:56;;;;;;;7.38;2.20;;;;;;;;;;5018592;28;20140;-87
2022/05/12 13:21:29;;;;;;;6.78;2.10;;;;;;;;;;5022855;28;20050;-86
2022/05/12 13:24:21;;;;;;;5.30;2.40;;;;;;;;;;5008811;28;20064;-85
2022/05/12 13:26:49;;;;;;;5.43;2.28;;;;;;;;;;5013271;28;20317;-85
2022/05/12 13:29:21;;;;;;;6.78;2.60;;;;;;;;;;5022656;28;20041;-86
2022/05/12 13:31:53;;;;;;;5.07;2.10;;;;;;;;;;5031697;28;20103;-86
2022/05/12 13:34:20;;;;;;;3.95;2.10;;;;;;;;;;5027963;28;20480;-86
2022/05/12 13:36:48;;;;;;;7.60;2.10;;;;;;;;;;5031285;28;20061;-86
2022/05/12 13:39:33;;;;;;;6.30;2.20;;;;;;;;;;5004049;28;20069;-86
2022/05/12 13:42:01;;;;;;;6.85;2.33;;;;;;;;;;4994000;28;20050;-86
2022/05/12 13:44:29;;;;;;;6.18;2.30;;;;;;;;;;5000088;28;20042;-85
2022/05/12 13:46:59;;;;;;;4.03;2.33;;;;;;;;;;5002622;28;20046;-86
2022/05/12 13:49:30;;;;;;;6.03;2.47;;;;;;;;;;5008578;28;20075;-87
2022/05/12 13:51:57;;;;;;;4.82;2.38;;;;;;;;;;4996753;28;20046;-86
2022/05/12 13:54:29;;;;;;;2.80;2.00;;;;;;;;;;5004365;28;20073;-87
2022/05/12 13:57:28;;;;;;;5.85;2.10;;;;;;;;;;5008455;28;20437;-86
2022/05/12 13:59:59;;;;;;;5.50;2.13;;;;;;;;;;4997247;28;20057;-86
2022/05/12 14:02:38;;;;;;;4.95;2.08;;;;;;;;;;5019764;28;20083;-87
2022/05/12 14:05:12;;;;;;;4.47;2.03;;;;;;;;;;5019506;28;20481;-85
2022/05/12 14:07:39;;;;;;;6.18;2.25;;;;;;;;;;5014266;28;20042;-85
2022/05/12 14:10:19;;;;;;;4.25;2.10;;;;;;;;;;5011001;28;20050;-87
2022/05/12 14:20:59;;;;;;;5.70;2.00;;;;;;;;;;5010711;28;20129;-85
2022/05/12 14:23:25;;;;;;;5.50;2.28;;;;;;;;;;5003029;28;20058;-85
2022/05/12 14:25:51;;;;;;;6.43;2.25;;;;;;;;;;5015608;28;20047;-85
2022/05/12 14:28:17;;;;;;;4.93;2.00;;;;;;;;;;4995508;28;20133;-86
2022/05/12 14:30:44;;;;;;;4.63;2.08;;;;;;;;;;5020657;28;20122;-87
2022/05/12 14:33:12;;;;;;;3.45;1.80;;;;;;;;;;5020461;28;20050;-85
2022/05/12 14:35:39;;;;;;;5.10;2.22;;;;;;;;;;5016542;28;20626;-88
2022/05/12 14:38:08;;;;;;;2.75;1.80;;;;;;;;;;5005179;28;20112;-85
2022/05/12 14:40:34;;;;;;;4.93;2.00;;;;;;;;;;5001634;28;20381;-86
2022/05/12 14:43:00;;;;;;;5.00;2.25;;;;;;;;;;5010090;28;20042;-86
2022/05/12 14:45:27;;;;;;;4.32;2.08;;;;;;;;;;5010005;28;20101;-84
2022/05/12 14:47:56;;;;;;;4.05;2.05;;;;;;;;;;5019259;28;20140;-86
2022/05/12 14:50:23;;;;;;;6.70;2.45;;;;;;;;;;5015657;28;20140;-87
2022/05/12 14:52:49;;;;;;;4.30;2.20;;;;;;;;;;4997579;28;20084;-88
2022/05/12 14:55:15;;;;;;;5.00;2.10;;;;;;;;;;5026331;28;20079;-86
2022/05/12 14:57:44;;;;;;;5.38;1.80;;;;;;;;;;5017120;28;20050;-87
2022/05/12 15:00:16;;;;;;;4.40;1.98;;;;;;;;;;5007384;28;20406;-86
2022/05/12 15:02:44;;;;;;;8.27;2.13;;;;;;;;;;5007799;28;20511;-86
2022/05/12 15:05:11;;;;;;;4.40;1.95;;;;;;;;;;5011210;28;20049;-86
2022/05/12 15:07:37;;;;;;;5.47;1.90;;;;;;;;;;5010302;28;20054;-86
2022/05/12 15:10:08;;;;;;;3.78;1.63;;;;;;;;;;5019658;28;20046;-86
2022/05/12 15:12:34;;;;;;;3.30;1.90;;;;;;;;;;5008239;28;20487;-81
2022/05/12 15:15:01;;;;;;;2.90;1.52;;;;;;;;;;5012153;28;20138;-83
2022/05/12 15:17:32;;;;;;;2.25;1.67;;;;;;;;;;5001659;28;20042;-83
2022/05/12 15:19:59;;;;;;;3.08;1.70;;;;;;;;;;5003860;28;20053;-86
2022/05/12 15:22:25;;;;;;;4.50;1.80;;;;;;;;;;5005880;28;20046;-87
2022/05/12 15:24:54;;;;;;;3.20;1.52;;;;;;;;;;5007642;28;20054;-86